createdAt,value
2023-04-15T00:05:06.822Z,10.00
2023-04-15T00:15:07.480Z,9.00
2023-04-15T00:25:05.880Z,11.00
2023-04-15T00:35:06.106Z,7.00
2023-04-15T00:45:05.910Z,5.00
2023-04-15T00:55:05.990Z,9.00
2023-04-15T01:05:06.013Z,11.00
2023-04-15T01:15:06.093Z,13.00
2023-04-15T01:25:05.879Z,4.00
2023-04-15T01:35:06.052Z,7.00
2023-04-15T01:45:06.156Z,12.00
2023-04-15T01:55:06.109Z,7.00
2023-04-15T02:05:06.658Z,8.00
2023-04-15T02:15:05.915Z,7.00
2023-04-15T02:25:05.911Z,8.00
2023-04-15T02:35:06.395Z,10.00
2023-04-15T02:45:05.910Z,10.00
2023-04-15T02:55:06.419Z,12.00
2023-04-15T03:05:06.002Z,9.00
2023-04-15T03:15:06.241Z,9.00
2023-04-15T03:25:06.060Z,10.00
2023-04-15T03:35:05.943Z,15.00
2023-04-15T03:45:05.977Z,15.00
2023-04-15T03:55:05.877Z,13.00
2023-04-15T04:05:06.063Z,11.00
2023-04-15T04:15:05.919Z,15.00
2023-04-15T04:25:05.955Z,13.00
2023-04-15T04:35:05.984Z,11.00
2023-04-15T04:45:05.860Z,10.00
2023-04-15T04:55:06.088Z,12.00
2023-04-15T05:05:06.240Z,10.00
2023-04-15T05:15:05.858Z,14.00
2023-04-15T05:25:06.260Z,17.00
2023-04-15T05:35:05.897Z,19.00
2023-04-15T05:45:05.973Z,21.00
2023-04-15T05:55:06.371Z,17.00
2023-04-15T06:05:06.200Z,10.00
2023-04-15T06:15:05.937Z,16.00
2023-04-15T06:25:05.969Z,21.00
2023-04-15T06:35:06.374Z,21.00
2023-04-15T06:45:06.276Z,20.00
2023-04-15T06:55:06.083Z,41.00
2023-04-15T07:05:05.959Z,20.00
2023-04-15T07:15:06.243Z,21.00
2023-04-15T07:25:06.166Z,13.00
2023-04-15T07:35:07.173Z,11.00
2023-04-15T07:45:06.088Z,14.00
2023-04-15T07:55:06.609Z,12.00
2023-04-15T08:05:06.174Z,18.00
2023-04-15T08:15:06.165Z,6.00
2023-04-15T08:25:05.945Z,9.00
2023-04-15T08:35:06.097Z,12.00
2023-04-15T08:45:06.117Z,17.00
2023-04-15T08:55:06.036Z,10.00
2023-04-15T09:05:06.289Z,13.00
2023-04-15T09:15:05.999Z,12.00
2023-04-15T09:25:06.057Z,8.00
2023-04-15T09:35:05.958Z,10.00
2023-04-15T09:45:06.233Z,7.00
2023-04-15T09:55:06.085Z,7.00
2023-04-15T10:05:05.945Z,6.00
2023-04-15T10:15:06.071Z,5.00
2023-04-15T10:25:06.323Z,9.00
2023-04-15T10:35:06.182Z,9.00
2023-04-15T10:45:06.030Z,8.00
2023-04-15T10:55:06.038Z,6.00
2023-04-15T11:05:06.048Z,3.00
2023-04-15T11:15:06.137Z,6.00
2023-04-15T11:25:06.200Z,5.00
2023-04-15T11:35:06.661Z,1.00
2023-04-15T11:45:05.988Z,3.00
2023-04-15T11:55:06.022Z,3.00
2023-04-15T12:05:06.092Z,3.00
2023-04-15T12:15:06.488Z,3.00
2023-04-15T12:25:06.702Z,2.00
2023-04-15T12:35:06.220Z,1.00
2023-04-15T12:45:06.158Z,1.00
2023-04-15T12:55:06.153Z,3.00
2023-04-15T13:05:06.111Z,2.00
2023-04-15T13:15:06.058Z,1.00
2023-04-15T13:25:06.100Z,3.00
2023-04-15T13:35:06.432Z,2.00
2023-04-15T13:45:06.435Z,2.00
2023-04-15T13:55:07.715Z,2.00
2023-04-15T14:05:06.196Z,4.00
2023-04-15T14:15:06.014Z,1.00
2023-04-15T14:25:06.148Z,4.00
2023-04-15T14:35:06.160Z,4.00
2023-04-15T14:45:06.385Z,4.00
2023-04-15T14:55:06.093Z,2.00
2023-04-15T15:05:06.324Z,4.00
2023-04-15T15:15:15.475Z,6.00
2023-04-15T15:25:06.156Z,4.00
2023-04-15T15:35:06.331Z,2.00
2023-04-15T15:45:06.050Z,2.00
2023-04-15T15:55:06.169Z,4.00
2023-04-15T16:05:06.657Z,4.00
2023-04-15T16:15:06.055Z,2.00
2023-04-15T16:25:06.973Z,1.00
2023-04-15T16:35:06.135Z,5.00
2023-04-15T16:45:06.122Z,4.00
2023-04-15T16:55:06.105Z,4.00
2023-04-15T17:05:06.327Z,5.00
2023-04-15T17:15:06.369Z,7.00
2023-04-15T17:25:06.085Z,9.00
2023-04-15T17:35:06.464Z,4.00
2023-04-15T17:45:06.083Z,5.00
2023-04-15T17:55:06.274Z,5.00
2023-04-15T18:05:06.355Z,5.00
2023-04-15T18:15:06.207Z,4.00
2023-04-15T18:25:06.518Z,9.00
2023-04-15T18:35:06.235Z,5.00
2023-04-15T18:45:06.439Z,6.00
2023-04-15T18:55:07.077Z,7.00
2023-04-15T19:05:06.052Z,5.00
2023-04-15T19:15:06.191Z,8.00
2023-04-15T19:25:06.258Z,5.00
2023-04-15T19:35:06.099Z,11.00
2023-04-15T19:45:06.323Z,5.00
2023-04-15T19:55:07.050Z,8.00
2023-04-15T20:05:06.289Z,5.00
2023-04-15T20:15:06.418Z,8.00
2023-04-15T20:25:06.476Z,11.00
2023-04-15T20:35:06.203Z,7.00
2023-04-15T20:45:06.237Z,9.00
2023-04-15T20:55:06.296Z,7.00
2023-04-15T21:05:06.374Z,8.00
2023-04-15T21:15:06.441Z,8.00
2023-04-15T21:25:06.130Z,4.00
2023-04-15T21:35:06.139Z,8.00
2023-04-15T21:45:06.200Z,11.00
2023-04-15T21:55:06.306Z,11.00
2023-04-15T22:05:06.539Z,11.00
2023-04-15T22:15:06.299Z,16.00
2023-04-15T22:25:06.882Z,19.00
2023-04-15T22:35:06.291Z,9.00
2023-04-15T22:45:06.254Z,11.00
2023-04-15T22:55:06.110Z,20.00
2023-04-15T23:05:12.476Z,13.00
2023-04-15T23:15:09.518Z,17.00
2023-04-15T23:25:08.488Z,22.00
2023-04-15T23:35:11.034Z,11.00
2023-04-15T23:45:07.878Z,15.00
2023-04-15T23:55:10.777Z,17.00
